sensor_id;sensor_type;location;lat;lon;timestamp;P1;durP1;ratioP1;P2;durP2;ratioP2
12112;SDS011;6120;52.250;8.478;2023-07-31T00:01:15;6.05;;;3.80;;
12112;SDS011;6120;52.250;8.478;2023-07-31T00:03:42;6.45;;;3.83;;
12112;SDS011;6120;52.250;8.478;2023-07-31T00:06:08;6.97;;;4.10;;
12112;SDS011;6120;52.250;8.478;2023-07-31T00:08:35;7.60;;;4.15;;
12112;SDS011;6120;52.250;8.478;2023-07-31T00:11:02;7.60;;;3.97;;
12112;SDS011;6120;52.250;8.478;2023-07-31T00:13:28;6.65;;;4.05;;
12112;SDS011;6120;52.250;8.478;2023-07-31T00:15:55;6.05;;;4.43;;
12112;SDS011;6120;52.250;8.478;2023-07-31T00:18:22;7.78;;;4.20;;
12112;SDS011;6120;52.250;8.478;2023-07-31T00:20:48;6.05;;;4.10;;
12112;SDS011;6120;52.250;8.478;2023-07-31T00:23:15;6.32;;;4.07;;
12112;SDS011;6120;52.250;8.478;2023-07-31T00:25:41;5.40;;;3.88;;
12112;SDS011;6120;52.250;8.478;2023-07-31T00:28:08;6.95;;;4.40;;
12112;SDS011;6120;52.250;8.478;2023-07-31T00:30:35;6.57;;;4.00;;
12112;SDS011;6120;52.250;8.478;2023-07-31T00:33:01;6.18;;;4.20;;
12112;SDS011;6120;52.250;8.478;2023-07-31T00:35:28;6.40;;;3.90;;
12112;SDS011;6120;52.250;8.478;2023-07-31T00:37:58;5.00;;;3.85;;
12112;SDS011;6120;52.250;8.478;2023-07-31T00:40:25;7.30;;;4.35;;
12112;SDS011;6120;52.250;8.478;2023-07-31T00:42:52;5.43;;;4.25;;
12112;SDS011;6120;52.250;8.478;2023-07-31T00:45:18;6.13;;;4.30;;
12112;SDS011;6120;52.250;8.478;2023-07-31T00:47:45;7.30;;;4.95;;
12112;SDS011;6120;52.250;8.478;2023-07-31T00:50:12;7.05;;;4.30;;
12112;SDS011;6120;52.250;8.478;2023-07-31T00:52:39;7.82;;;4.80;;
12112;SDS011;6120;52.250;8.478;2023-07-31T00:55:05;7.82;;;4.80;;
12112;SDS011;6120;52.250;8.478;2023-07-31T00:57:33;7.72;;;5.82;;
12112;SDS011;6120;52.250;8.478;2023-07-31T01:00:00;8.27;;;5.97;;
12112;SDS011;6120;52.250;8.478;2023-07-31T01:02:27;8.65;;;5.90;;
12112;SDS011;6120;52.250;8.478;2023-07-31T01:04:54;7.80;;;5.50;;
12112;SDS011;6120;52.250;8.478;2023-07-31T01:07:30;7.47;;;5.57;;
12112;SDS011;6120;52.250;8.478;2023-07-31T01:10:26;7.30;;;5.20;;
12112;SDS011;6120;52.250;8.478;2023-07-31T01:12:54;7.82;;;5.57;;
12112;SDS011;6120;52.250;8.478;2023-07-31T01:15:23;8.02;;;6.05;;
12112;SDS011;6120;52.250;8.478;2023-07-31T01:17:49;9.20;;;6.07;;
12112;SDS011;6120;52.250;8.478;2023-07-31T01:20:26;8.80;;;6.03;;
12112;SDS011;6120;52.250;8.478;2023-07-31T01:23:18;10.98;;;6.03;;
12112;SDS011;6120;52.250;8.478;2023-07-31T01:28:53;7.80;;;6.10;;
12112;SDS011;6120;52.250;8.478;2023-07-31T01:31:23;8.40;;;5.53;;
12112;SDS011;6120;52.250;8.478;2023-07-31T01:33:54;7.65;;;5.80;;
12112;SDS011;6120;52.250;8.478;2023-07-31T01:36:25;7.63;;;6.03;;
12112;SDS011;6120;52.250;8.478;2023-07-31T01:38:52;9.05;;;5.63;;
12112;SDS011;6120;52.250;8.478;2023-07-31T01:41:18;5.68;;;4.50;;
12112;SDS011;6120;52.250;8.478;2023-07-31T01:43:45;6.82;;;5.43;;
12112;SDS011;6120;52.250;8.478;2023-07-31T01:46:12;6.25;;;4.75;;
12112;SDS011;6120;52.250;8.478;2023-07-31T01:48:39;7.95;;;4.07;;
12112;SDS011;6120;52.250;8.478;2023-07-31T01:51:05;5.07;;;4.35;;
12112;SDS011;6120;52.250;8.478;2023-07-31T01:53:32;4.45;;;3.40;;
12112;SDS011;6120;52.250;8.478;2023-07-31T01:55:59;5.20;;;4.05;;
12112;SDS011;6120;52.250;8.478;2023-07-31T01:58:25;5.05;;;4.07;;
12112;SDS011;6120;52.250;8.478;2023-07-31T02:00:52;7.10;;;4.03;;
12112;SDS011;6120;52.250;8.478;2023-07-31T02:03:19;5.53;;;3.63;;
12112;SDS011;6120;52.250;8.478;2023-07-31T02:05:46;4.32;;;3.50;;
12112;SDS011;6120;52.250;8.478;2023-07-31T02:08:14;5.35;;;3.90;;
12112;SDS011;6120;52.250;8.478;2023-07-31T02:10:41;5.43;;;3.22;;
12112;SDS011;6120;52.250;8.478;2023-07-31T02:13:08;4.13;;;2.92;;
12112;SDS011;6120;52.250;8.478;2023-07-31T02:15:35;6.00;;;2.83;;
12112;SDS011;6120;52.250;8.478;2023-07-31T02:18:02;4.30;;;2.80;;
12112;SDS011;6120;52.250;8.478;2023-07-31T02:20:28;4.78;;;2.65;;
12112;SDS011;6120;52.250;8.478;2023-07-31T02:22:55;4.10;;;2.70;;
12112;SDS011;6120;52.250;8.478;2023-07-31T02:25:22;4.03;;;2.88;;
12112;SDS011;6120;52.250;8.478;2023-07-31T02:27:48;3.92;;;2.60;;
12112;SDS011;6120;52.250;8.478;2023-07-31T02:30:15;3.15;;;2.28;;
12112;SDS011;6120;52.250;8.478;2023-07-31T02:32:41;3.17;;;2.30;;
12112;SDS011;6120;52.250;8.478;2023-07-31T02:35:08;3.42;;;2.50;;
12112;SDS011;6120;52.250;8.478;2023-07-31T02:37:35;3.33;;;2.00;;
12112;SDS011;6120;52.250;8.478;2023-07-31T02:40:02;3.45;;;1.92;;
12112;SDS011;6120;52.250;8.478;2023-07-31T02:42:29;3.15;;;1.90;;
12112;SDS011;6120;52.250;8.478;2023-07-31T02:44:56;3.70;;;2.17;;
12112;SDS011;6120;52.250;8.478;2023-07-31T02:47:22;3.38;;;1.80;;
12112;SDS011;6120;52.250;8.478;2023-07-31T02:49:49;3.13;;;1.90;;
12112;SDS011;6120;52.250;8.478;2023-07-31T02:52:16;3.88;;;1.55;;
12112;SDS011;6120;52.250;8.478;2023-07-31T02:54:42;2.25;;;1.50;;
12112;SDS011;6120;52.250;8.478;2023-07-31T02:57:09;3.33;;;1.60;;
12112;SDS011;6120;52.250;8.478;2023-07-31T02:59:35;2.22;;;1.50;;
12112;SDS011;6120;52.250;8.478;2023-07-31T03:02:02;2.67;;;1.50;;
12112;SDS011;6120;52.250;8.478;2023-07-31T03:04:29;4.57;;;1.90;;
12112;SDS011;6120;52.250;8.478;2023-07-31T03:06:55;3.00;;;1.80;;
12112;SDS011;6120;52.250;8.478;2023-07-31T03:09:22;3.92;;;1.88;;
12112;SDS011;6120;52.250;8.478;2023-07-31T03:11:49;3.95;;;1.65;;
12112;SDS011;6120;52.250;8.478;2023-07-31T03:14:15;3.15;;;1.60;;
12112;SDS011;6120;52.250;8.478;2023-07-31T03:16:43;2.00;;;1.38;;
12112;SDS011;6120;52.250;8.478;2023-07-31T03:19:10;3.97;;;1.58;;
12112;SDS011;6120;52.250;8.478;2023-07-31T03:21:36;4.22;;;1.33;;
12112;SDS011;6120;52.250;8.478;2023-07-31T03:24:03;5.32;;;1.35;;
12112;SDS011;6120;52.250;8.478;2023-07-31T03:26:33;5.60;;;1.40;;
12112;SDS011;6120;52.250;8.478;2023-07-31T03:29:00;2.15;;;1.02;;
12112;SDS011;6120;52.250;8.478;2023-07-31T03:31:26;1.60;;;1.17;;
12112;SDS011;6120;52.250;8.478;2023-07-31T03:33:53;1.77;;;1.10;;
12112;SDS011;6120;52.250;8.478;2023-07-31T03:36:20;2.03;;;1.20;;
12112;SDS011;6120;52.250;8.478;2023-07-31T03:38:47;3.83;;;1.05;;
12112;SDS011;6120;52.250;8.478;2023-07-31T03:41:13;2.20;;;1.30;;
12112;SDS011;6120;52.250;8.478;2023-07-31T03:43:40;2.55;;;1.20;;
12112;SDS011;6120;52.250;8.478;2023-07-31T03:46:07;2.13;;;1.17;;
12112;SDS011;6120;52.250;8.478;2023-07-31T03:48:33;1.70;;;1.10;;
12112;SDS011;6120;52.250;8.478;2023-07-31T03:51:00;0.75;;;0.75;;
12112;SDS011;6120;52.250;8.478;2023-07-31T03:53:26;1.00;;;0.70;;
12112;SDS011;6120;52.250;8.478;2023-07-31T03:55:53;1.80;;;1.10;;
12112;SDS011;6120;52.250;8.478;2023-07-31T03:58:20;1.35;;;1.02;;
12112;SDS011;6120;52.250;8.478;2023-07-31T04:00:46;2.00;;;1.15;;
12112;SDS011;6120;52.250;8.478;2023-07-31T04:03:13;3.25;;;1.40;;
12112;SDS011;6120;52.250;8.478;2023-07-31T04:05:40;3.63;;;1.80;;
12112;SDS011;6120;52.250;8.478;2023-07-31T04:08:07;6.50;;;2.17;;
12112;SDS011;6120;52.250;8.478;2023-07-31T04:10:33;3.97;;;2.30;;
12112;SDS011;6120;52.250;8.478;2023-07-31T04:13:00;5.75;;;3.40;;
12112;SDS011;6120;52.250;8.478;2023-07-31T04:15:27;7.63;;;3.65;;
12112;SDS011;6120;52.250;8.478;2023-07-31T04:17:53;7.43;;;3.50;;
12112;SDS011;6120;52.250;8.478;2023-07-31T04:20:20;8.10;;;4.07;;
12112;SDS011;6120;52.250;8.478;2023-07-31T04:22:48;14.00;;;5.13;;
12112;SDS011;6120;52.250;8.478;2023-07-31T04:25:15;7.93;;;4.78;;
12112;SDS011;6120;52.250;8.478;2023-07-31T04:27:41;12.18;;;6.05;;
12112;SDS011;6120;52.250;8.478;2023-07-31T04:30:08;11.63;;;5.25;;
12112;SDS011;6120;52.250;8.478;2023-07-31T04:32:35;14.30;;;6.03;;
12112;SDS011;6120;52.250;8.478;2023-07-31T04:35:02;12.50;;;6.30;;
12112;SDS011;6120;52.250;8.478;2023-07-31T04:37:29;21.13;;;7.13;;
12112;SDS011;6120;52.250;8.478;2023-07-31T04:39:56;19.58;;;7.05;;
12112;SDS011;6120;52.250;8.478;2023-07-31T04:42:22;21.05;;;7.47;;
12112;SDS011;6120;52.250;8.478;2023-07-31T04:44:49;20.23;;;7.53;;
12112;SDS011;6120;52.250;8.478;2023-07-31T04:47:16;15.15;;;6.85;;
12112;SDS011;6120;52.250;8.478;2023-07-31T04:49:42;19.33;;;7.68;;
12112;SDS011;6120;52.250;8.478;2023-07-31T04:52:09;19.08;;;7.72;;
12112;SDS011;6120;52.250;8.478;2023-07-31T04:54:36;17.20;;;7.75;;
12112;SDS011;6120;52.250;8.478;2023-07-31T04:57:02;20.13;;;7.72;;
12112;SDS011;6120;52.250;8.478;2023-07-31T04:59:29;12.95;;;6.38;;
12112;SDS011;6120;52.250;8.478;2023-07-31T05:01:56;16.58;;;6.82;;
12112;SDS011;6120;52.250;8.478;2023-07-31T05:04:22;15.93;;;7.32;;
12112;SDS011;6120;52.250;8.478;2023-07-31T05:06:49;20.55;;;9.02;;
12112;SDS011;6120;52.250;8.478;2023-07-31T05:09:16;26.00;;;8.93;;
12112;SDS011;6120;52.250;8.478;2023-07-31T05:11:43;16.77;;;7.80;;
12112;SDS011;6120;52.250;8.478;2023-07-31T05:14:09;19.00;;;8.07;;
12112;SDS011;6120;52.250;8.478;2023-07-31T05:16:36;27.38;;;8.77;;
12112;SDS011;6120;52.250;8.478;2023-07-31T05:19:03;17.92;;;7.72;;
12112;SDS011;6120;52.250;8.478;2023-07-31T05:21:30;19.55;;;7.60;;
12112;SDS011;6120;52.250;8.478;2023-07-31T05:23:57;18.15;;;7.55;;
12112;SDS011;6120;52.250;8.478;2023-07-31T05:26:23;20.33;;;8.32;;
12112;SDS011;6120;52.250;8.478;2023-07-31T05:28:50;27.60;;;9.50;;
12112;SDS011;6120;52.250;8.478;2023-07-31T05:31:17;16.92;;;8.45;;
12112;SDS011;6120;52.250;8.478;2023-07-31T05:33:43;24.00;;;8.93;;
12112;SDS011;6120;52.250;8.478;2023-07-31T05:36:10;23.65;;;8.40;;
12112;SDS011;6120;52.250;8.478;2023-07-31T05:38:36;18.45;;;8.02;;
12112;SDS011;6120;52.250;8.478;2023-07-31T05:41:05;27.80;;;7.85;;
12112;SDS011;6120;52.250;8.478;2023-07-31T05:43:31;25.40;;;8.20;;
12112;SDS011;6120;52.250;8.478;2023-07-31T05:45:58;27.27;;;9.55;;
12112;SDS011;6120;52.250;8.478;2023-07-31T05:48:24;24.65;;;8.90;;
12112;SDS011;6120;52.250;8.478;2023-07-31T05:50:51;22.70;;;8.60;;
12112;SDS011;6120;52.250;8.478;2023-07-31T05:53:18;33.47;;;9.45;;
12112;SDS011;6120;52.250;8.478;2023-07-31T05:55:45;22.75;;;8.73;;
12112;SDS011;6120;52.250;8.478;2023-07-31T05:58:11;23.85;;;8.48;;
12112;SDS011;6120;52.250;8.478;2023-07-31T06:00:38;30.42;;;9.18;;
12112;SDS011;6120;52.250;8.478;2023-07-31T06:03:05;23.40;;;9.52;;
12112;SDS011;6120;52.250;8.478;2023-07-31T06:05:31;24.08;;;8.10;;
12112;SDS011;6120;52.250;8.478;2023-07-31T06:07:58;24.30;;;8.48;;
12112;SDS011;6120;52.250;8.478;2023-07-31T06:10:25;25.58;;;8.98;;
12112;SDS011;6120;52.250;8.478;2023-07-31T06:12:52;24.73;;;8.65;;
12112;SDS011;6120;52.250;8.478;2023-07-31T06:15:19;25.60;;;8.93;;
12112;SDS011;6120;52.250;8.478;2023-07-31T06:17:45;24.92;;;7.70;;
12112;SDS011;6120;52.250;8.478;2023-07-31T06:20:12;27.02;;;7.35;;
12112;SDS011;6120;52.250;8.478;2023-07-31T06:22:39;24.75;;;7.82;;
12112;SDS011;6120;52.250;8.478;2023-07-31T06:25:06;17.85;;;7.15;;
12112;SDS011;6120;52.250;8.478;2023-07-31T06:27:33;19.50;;;7.18;;
12112;SDS011;6120;52.250;8.478;2023-07-31T06:29:59;19.70;;;6.28;;
12112;SDS011;6120;52.250;8.478;2023-07-31T06:32:26;22.92;;;7.50;;
12112;SDS011;6120;52.250;8.478;2023-07-31T06:34:53;26.05;;;7.45;;
12112;SDS011;6120;52.250;8.478;2023-07-31T06:37:20;20.10;;;7.35;;
12112;SDS011;6120;52.250;8.478;2023-07-31T06:39:47;19.92;;;6.80;;
12112;SDS011;6120;52.250;8.478;2023-07-31T06:42:13;17.35;;;6.50;;
12112;SDS011;6120;52.250;8.478;2023-07-31T06:44:40;17.13;;;7.55;;
12112;SDS011;6120;52.250;8.478;2023-07-31T06:47:06;23.80;;;7.68;;
12112;SDS011;6120;52.250;8.478;2023-07-31T06:49:33;18.58;;;6.65;;
12112;SDS011;6120;52.250;8.478;2023-07-31T06:52:00;21.30;;;6.53;;
12112;SDS011;6120;52.250;8.478;2023-07-31T06:54:26;18.08;;;5.97;;
12112;SDS011;6120;52.250;8.478;2023-07-31T06:56:53;19.95;;;6.60;;
12112;SDS011;6120;52.250;8.478;2023-07-31T06:59:19;21.23;;;7.50;;
12112;SDS011;6120;52.250;8.478;2023-07-31T07:01:46;18.77;;;6.63;;
12112;SDS011;6120;52.250;8.478;2023-07-31T07:04:13;18.52;;;6.97;;
12112;SDS011;6120;52.250;8.478;2023-07-31T07:06:40;21.15;;;6.78;;
12112;SDS011;6120;52.250;8.478;2023-07-31T07:09:07;15.30;;;5.40;;
12112;SDS011;6120;52.250;8.478;2023-07-31T07:11:34;19.02;;;7.03;;
12112;SDS011;6120;52.250;8.478;2023-07-31T07:14:01;17.10;;;6.80;;
12112;SDS011;6120;52.250;8.478;2023-07-31T07:16:28;27.10;;;8.88;;
12112;SDS011;6120;52.250;8.478;2023-07-31T07:18:55;17.65;;;6.90;;
12112;SDS011;6120;52.250;8.478;2023-07-31T07:21:29;20.35;;;6.10;;
12112;SDS011;6120;52.250;8.478;2023-07-31T07:23:56;16.52;;;6.47;;
12112;SDS011;6120;52.250;8.478;2023-07-31T07:26:23;26.17;;;7.20;;
12112;SDS011;6120;52.250;8.478;2023-07-31T07:28:49;21.45;;;6.60;;
12112;SDS011;6120;52.250;8.478;2023-07-31T07:31:16;19.83;;;7.22;;
12112;SDS011;6120;52.250;8.478;2023-07-31T07:33:43;13.93;;;6.07;;
12112;SDS011;6120;52.250;8.478;2023-07-31T07:36:09;18.13;;;6.25;;
12112;SDS011;6120;52.250;8.478;2023-07-31T07:38:36;23.10;;;6.75;;
12112;SDS011;6120;52.250;8.478;2023-07-31T07:41:04;12.23;;;5.82;;
12112;SDS011;6120;52.250;8.478;2023-07-31T07:43:31;14.30;;;6.30;;
12112;SDS011;6120;52.250;8.478;2023-07-31T07:45:57;16.67;;;6.15;;
12112;SDS011;6120;52.250;8.478;2023-07-31T07:48:24;14.43;;;6.38;;
12112;SDS011;6120;52.250;8.478;2023-07-31T07:50:51;15.77;;;6.05;;
12112;SDS011;6120;52.250;8.478;2023-07-31T07:53:18;14.52;;;5.65;;
12112;SDS011;6120;52.250;8.478;2023-07-31T07:55:45;14.40;;;6.28;;
12112;SDS011;6120;52.250;8.478;2023-07-31T07:58:11;13.75;;;5.28;;
12112;SDS011;6120;52.250;8.478;2023-07-31T08:00:38;16.45;;;7.10;;
12112;SDS011;6120;52.250;8.478;2023-07-31T08:03:05;12.68;;;5.60;;
12112;SDS011;6120;52.250;8.478;2023-07-31T08:05:32;12.55;;;6.28;;
12112;SDS011;6120;52.250;8.478;2023-07-31T08:08:00;18.20;;;6.97;;
12112;SDS011;6120;52.250;8.478;2023-07-31T08:10:27;16.83;;;7.07;;
12112;SDS011;6120;52.250;8.478;2023-07-31T08:12:54;13.75;;;6.47;;
12112;SDS011;6120;52.250;8.478;2023-07-31T08:15:20;15.75;;;6.35;;
12112;SDS011;6120;52.250;8.478;2023-07-31T08:17:47;14.25;;;6.70;;
12112;SDS011;6120;52.250;8.478;2023-07-31T08:20:14;12.45;;;6.95;;
12112;SDS011;6120;52.250;8.478;2023-07-31T08:22:41;14.40;;;7.70;;
12112;SDS011;6120;52.250;8.478;2023-07-31T08:25:07;14.68;;;7.72;;
12112;SDS011;6120;52.250;8.478;2023-07-31T08:27:34;16.40;;;7.38;;
12112;SDS011;6120;52.250;8.478;2023-07-31T08:30:01;14.00;;;7.43;;
12112;SDS011;6120;52.250;8.478;2023-07-31T08:32:27;13.45;;;7.03;;
12112;SDS011;6120;52.250;8.478;2023-07-31T08:34:54;11.63;;;7.03;;
12112;SDS011;6120;52.250;8.478;2023-07-31T08:37:21;12.45;;;7.20;;
12112;SDS011;6120;52.250;8.478;2023-07-31T08:39:47;15.15;;;6.78;;
12112;SDS011;6120;52.250;8.478;2023-07-31T08:42:14;12.00;;;7.00;;
12112;SDS011;6120;52.250;8.478;2023-07-31T08:44:40;10.43;;;6.22;;
12112;SDS011;6120;52.250;8.478;2023-07-31T08:47:07;10.85;;;6.40;;
12112;SDS011;6120;52.250;8.478;2023-07-31T08:49:34;10.82;;;5.88;;
12112;SDS011;6120;52.250;8.478;2023-07-31T08:52:01;10.63;;;5.88;;
12112;SDS011;6120;52.250;8.478;2023-07-31T08:54:28;8.57;;;5.72;;
12112;SDS011;6120;52.250;8.478;2023-07-31T08:56:57;9.43;;;5.53;;
12112;SDS011;6120;52.250;8.478;2023-07-31T08:59:27;11.63;;;5.68;;
12112;SDS011;6120;52.250;8.478;2023-07-31T09:01:55;9.63;;;4.78;;
12112;SDS011;6120;52.250;8.478;2023-07-31T09:04:24;8.05;;;5.13;;
12112;SDS011;6120;52.250;8.478;2023-07-31T09:06:52;9.25;;;5.10;;
12112;SDS011;6120;52.250;8.478;2023-07-31T09:09:22;7.35;;;5.10;;
12112;SDS011;6120;52.250;8.478;2023-07-31T09:11:49;7.85;;;5.03;;
12112;SDS011;6120;52.250;8.478;2023-07-31T09:14:16;9.05;;;5.40;;
12112;SDS011;6120;52.250;8.478;2023-07-31T09:16:54;10.43;;;5.53;;
12112;SDS011;6120;52.250;8.478;2023-07-31T09:19:55;8.48;;;5.10;;
12112;SDS011;6120;52.250;8.478;2023-07-31T09:22:14;7.97;;;4.57;;
12112;SDS011;6120;52.250;8.478;2023-07-31T09:24:41;10.05;;;4.70;;
12112;SDS011;6120;52.250;8.478;2023-07-31T09:27:07;8.02;;;4.65;;
12112;SDS011;6120;52.250;8.478;2023-07-31T09:29:34;7.57;;;4.65;;
12112;SDS011;6120;52.250;8.478;2023-07-31T09:32:00;6.40;;;4.97;;
12112;SDS011;6120;52.250;8.478;2023-07-31T09:34:31;9.43;;;5.15;;
12112;SDS011;6120;52.250;8.478;2023-07-31T09:37:04;7.00;;;4.53;;
12112;SDS011;6120;52.250;8.478;2023-07-31T09:39:31;8.43;;;4.70;;
12112;SDS011;6120;52.250;8.478;2023-07-31T09:41:58;6.50;;;4.55;;
12112;SDS011;6120;52.250;8.478;2023-07-31T09:44:38;6.80;;;4.93;;
12112;SDS011;6120;52.250;8.478;2023-07-31T09:47:06;6.78;;;4.03;;
12112;SDS011;6120;52.250;8.478;2023-07-31T09:49:33;6.22;;;4.15;;
12112;SDS011;6120;52.250;8.478;2023-07-31T09:52:00;7.28;;;4.70;;
12112;SDS011;6120;52.250;8.478;2023-07-31T09:54:27;7.72;;;4.28;;
12112;SDS011;6120;52.250;8.478;2023-07-31T09:56:53;8.48;;;4.93;;
12112;SDS011;6120;52.250;8.478;2023-07-31T09:59:21;7.35;;;4.90;;
12112;SDS011;6120;52.250;8.478;2023-07-31T10:01:50;8.00;;;4.80;;
12112;SDS011;6120;52.250;8.478;2023-07-31T10:04:17;7.95;;;4.90;;
12112;SDS011;6120;52.250;8.478;2023-07-31T10:06:47;6.07;;;4.82;;
12112;SDS011;6120;52.250;8.478;2023-07-31T10:09:15;7.20;;;5.40;;
12112;SDS011;6120;52.250;8.478;2023-07-31T10:11:46;6.73;;;5.13;;
12112;SDS011;6120;52.250;8.478;2023-07-31T10:14:20;8.77;;;5.80;;
12112;SDS011;6120;52.250;8.478;2023-07-31T10:16:48;8.25;;;5.50;;
12112;SDS011;6120;52.250;8.478;2023-07-31T10:19:15;8.13;;;5.15;;
12112;SDS011;6120;52.250;8.478;2023-07-31T10:21:43;6.38;;;4.57;;
12112;SDS011;6120;52.250;8.478;2023-07-31T10:24:11;5.47;;;4.13;;
12112;SDS011;6120;52.250;8.478;2023-07-31T10:26:40;6.03;;;3.88;;
12112;SDS011;6120;52.250;8.478;2023-07-31T10:29:08;7.75;;;3.65;;
12112;SDS011;6120;52.250;8.478;2023-07-31T10:31:34;4.47;;;3.45;;
12112;SDS011;6120;52.250;8.478;2023-07-31T10:34:01;3.95;;;2.90;;
12112;SDS011;6120;52.250;8.478;2023-07-31T10:36:29;6.15;;;3.15;;
12112;SDS011;6120;52.250;8.478;2023-07-31T10:38:56;4.32;;;3.03;;
12112;SDS011;6120;52.250;8.478;2023-07-31T10:41:30;6.30;;;3.08;;
12112;SDS011;6120;52.250;8.478;2023-07-31T10:44:00;4.10;;;3.15;;
12112;SDS011;6120;52.250;8.478;2023-07-31T10:46:28;4.75;;;3.20;;
12112;SDS011;6120;52.250;8.478;2023-07-31T10:49:00;5.47;;;3.63;;
12112;SDS011;6120;52.250;8.478;2023-07-31T10:51:35;6.18;;;4.03;;
12112;SDS011;6120;52.250;8.478;2023-07-31T10:54:12;6.15;;;3.38;;
12112;SDS011;6120;52.250;8.478;2023-07-31T10:56:45;5.00;;;3.10;;
12112;SDS011;6120;52.250;8.478;2023-07-31T10:59:15;5.00;;;3.63;;
12112;SDS011;6120;52.250;8.478;2023-07-31T11:01:51;4.82;;;3.58;;
12112;SDS011;6120;52.250;8.478;2023-07-31T11:04:24;6.28;;;3.92;;
12112;SDS011;6120;52.250;8.478;2023-07-31T11:06:59;7.35;;;3.97;;
12112;SDS011;6120;52.250;8.478;2023-07-31T11:09:27;7.22;;;3.90;;
12112;SDS011;6120;52.250;8.478;2023-07-31T11:11:56;5.50;;;3.90;;
12112;SDS011;6120;52.250;8.478;2023-07-31T11:14:23;6.63;;;3.83;;
12112;SDS011;6120;52.250;8.478;2023-07-31T11:16:50;5.68;;;3.45;;
12112;SDS011;6120;52.250;8.478;2023-07-31T11:19:24;4.82;;;3.15;;
12112;SDS011;6120;52.250;8.478;2023-07-31T11:21:52;7.10;;;3.55;;
12112;SDS011;6120;52.250;8.478;2023-07-31T11:24:19;5.15;;;3.83;;
12112;SDS011;6120;52.250;8.478;2023-07-31T11:26:50;5.57;;;3.63;;
12112;SDS011;6120;52.250;8.478;2023-07-31T11:29:18;6.30;;;3.80;;
12112;SDS011;6120;52.250;8.478;2023-07-31T11:31:46;5.63;;;3.40;;
12112;SDS011;6120;52.250;8.478;2023-07-31T11:34:13;7.13;;;3.67;;
12112;SDS011;6120;52.250;8.478;2023-07-31T11:36:39;8.85;;;3.85;;
12112;SDS011;6120;52.250;8.478;2023-07-31T11:39:07;5.50;;;3.67;;
12112;SDS011;6120;52.250;8.478;2023-07-31T11:41:35;4.78;;;3.33;;
12112;SDS011;6120;52.250;8.478;2023-07-31T11:44:02;4.72;;;3.65;;
12112;SDS011;6120;52.250;8.478;2023-07-31T11:46:46;7.18;;;3.80;;
12112;SDS011;6120;52.250;8.478;2023-07-31T11:49:13;5.03;;;3.10;;
12112;SDS011;6120;52.250;8.478;2023-07-31T11:51:41;4.93;;;3.37;;
12112;SDS011;6120;52.250;8.478;2023-07-31T11:54:08;8.13;;;3.50;;
12112;SDS011;6120;52.250;8.478;2023-07-31T11:56:34;6.13;;;3.70;;
12112;SDS011;6120;52.250;8.478;2023-07-31T11:59:01;5.90;;;3.63;;
12112;SDS011;6120;52.250;8.478;2023-07-31T12:01:29;3.90;;;2.90;;
12112;SDS011;6120;52.250;8.478;2023-07-31T12:03:56;5.55;;;3.40;;
12112;SDS011;6120;52.250;8.478;2023-07-31T12:06:32;4.50;;;3.22;;
12112;SDS011;6120;52.250;8.478;2023-07-31T12:09:05;5.90;;;3.65;;
12112;SDS011;6120;52.250;8.478;2023-07-31T12:11:47;4.63;;;3.50;;
12112;SDS011;6120;52.250;8.478;2023-07-31T12:14:21;5.30;;;3.65;;
12112;SDS011;6120;52.250;8.478;2023-07-31T12:16:55;5.65;;;3.25;;
12112;SDS011;6120;52.250;8.478;2023-07-31T12:19:23;5.50;;;3.63;;
12112;SDS011;6120;52.250;8.478;2023-07-31T12:21:49;4.43;;;3.08;;
12112;SDS011;6120;52.250;8.478;2023-07-31T12:24:18;4.18;;;2.97;;
12112;SDS011;6120;52.250;8.478;2023-07-31T12:26:45;3.38;;;2.33;;
12112;SDS011;6120;52.250;8.478;2023-07-31T12:29:13;3.70;;;2.67;;
12112;SDS011;6120;52.250;8.478;2023-07-31T12:31:43;4.13;;;2.85;;
12112;SDS011;6120;52.250;8.478;2023-07-31T12:34:16;4.93;;;2.53;;
12112;SDS011;6120;52.250;8.478;2023-07-31T12:36:44;3.40;;;2.50;;
12112;SDS011;6120;52.250;8.478;2023-07-31T12:39:12;3.40;;;2.60;;
12112;SDS011;6120;52.250;8.478;2023-07-31T12:41:38;4.88;;;2.80;;
12112;SDS011;6120;52.250;8.478;2023-07-31T12:44:05;8.07;;;3.10;;
12112;SDS011;6120;52.250;8.478;2023-07-31T12:46:32;4.07;;;2.60;;
12112;SDS011;6120;52.250;8.478;2023-07-31T12:48:58;3.83;;;2.67;;
12112;SDS011;6120;52.250;8.478;2023-07-31T12:51:25;4.10;;;2.75;;
12112;SDS011;6120;52.250;8.478;2023-07-31T12:53:52;5.65;;;2.90;;
12112;SDS011;6120;52.250;8.478;2023-07-31T12:56:18;4.55;;;2.88;;
12112;SDS011;6120;52.250;8.478;2023-07-31T12:58:45;3.80;;;2.80;;
12112;SDS011;6120;52.250;8.478;2023-07-31T13:01:12;5.88;;;3.33;;
12112;SDS011;6120;52.250;8.478;2023-07-31T13:03:38;5.15;;;3.58;;
12112;SDS011;6120;52.250;8.478;2023-07-31T13:06:05;5.30;;;3.75;;
12112;SDS011;6120;52.250;8.478;2023-07-31T13:08:32;6.88;;;4.78;;
12112;SDS011;6120;52.250;8.478;2023-07-31T13:10:58;6.47;;;4.53;;
12112;SDS011;6120;52.250;8.478;2023-07-31T13:13:25;7.82;;;5.50;;
12112;SDS011;6120;52.250;8.478;2023-07-31T13:15:52;7.38;;;5.45;;
12112;SDS011;6120;52.250;8.478;2023-07-31T13:18:18;10.30;;;6.53;;
12112;SDS011;6120;52.250;8.478;2023-07-31T13:20:45;8.45;;;6.25;;
12112;SDS011;6120;52.250;8.478;2023-07-31T13:23:12;8.80;;;6.00;;
12112;SDS011;6120;52.250;8.478;2023-07-31T13:25:38;10.75;;;7.47;;
12112;SDS011;6120;52.250;8.478;2023-07-31T13:28:05;12.60;;;7.85;;
12112;SDS011;6120;52.250;8.478;2023-07-31T13:30:32;10.93;;;7.85;;
12112;SDS011;6120;52.250;8.478;2023-07-31T13:32:59;11.43;;;7.85;;
12112;SDS011;6120;52.250;8.478;2023-07-31T13:35:25;12.10;;;9.05;;
12112;SDS011;6120;52.250;8.478;2023-07-31T13:37:52;14.30;;;10.20;;
12112;SDS011;6120;52.250;8.478;2023-07-31T13:40:19;12.88;;;9.90;;
12112;SDS011;6120;52.250;8.478;2023-07-31T13:42:45;12.85;;;8.55;;
12112;SDS011;6120;52.250;8.478;2023-07-31T13:45:14;13.80;;;10.80;;
12112;SDS011;6120;52.250;8.478;2023-07-31T13:47:40;13.15;;;9.25;;
12112;SDS011;6120;52.250;8.478;2023-07-31T13:50:07;16.10;;;10.38;;
12112;SDS011;6120;52.250;8.478;2023-07-31T13:52:34;14.57;;;9.50;;
12112;SDS011;6120;52.250;8.478;2023-07-31T13:55:01;12.60;;;9.70;;
12112;SDS011;6120;52.250;8.478;2023-07-31T13:57:27;11.70;;;8.60;;
12112;SDS011;6120;52.250;8.478;2023-07-31T13:59:54;13.65;;;9.57;;
12112;SDS011;6120;52.250;8.478;2023-07-31T14:02:21;12.77;;;9.43;;
12112;SDS011;6120;52.250;8.478;2023-07-31T14:04:48;11.50;;;8.18;;
12112;SDS011;6120;52.250;8.478;2023-07-31T14:07:14;15.30;;;9.55;;
12112;SDS011;6120;52.250;8.478;2023-07-31T14:09:41;13.20;;;9.10;;
12112;SDS011;6120;52.250;8.478;2023-07-31T14:12:07;12.68;;;7.60;;
12112;SDS011;6120;52.250;8.478;2023-07-31T14:14:34;12.07;;;8.48;;
12112;SDS011;6120;52.250;8.478;2023-07-31T14:17:01;11.73;;;8.18;;
12112;SDS011;6120;52.250;8.478;2023-07-31T14:19:28;11.10;;;7.28;;
12112;SDS011;6120;52.250;8.478;2023-07-31T14:21:57;11.95;;;7.70;;
12112;SDS011;6120;52.250;8.478;2023-07-31T14:24:37;12.45;;;7.05;;
12112;SDS011;6120;52.250;8.478;2023-07-31T14:27:04;11.23;;;7.60;;
12112;SDS011;6120;52.250;8.478;2023-07-31T14:29:31;11.70;;;8.20;;
12112;SDS011;6120;52.250;8.478;2023-07-31T14:31:58;11.38;;;8.52;;
12112;SDS011;6120;52.250;8.478;2023-07-31T14:34:26;12.43;;;8.10;;
12112;SDS011;6120;52.250;8.478;2023-07-31T14:36:53;12.00;;;8.20;;
12112;SDS011;6120;52.250;8.478;2023-07-31T14:39:19;12.32;;;8.13;;
12112;SDS011;6120;52.250;8.478;2023-07-31T14:41:46;10.18;;;8.43;;
12112;SDS011;6120;52.250;8.478;2023-07-31T14:44:14;13.05;;;9.02;;
12112;SDS011;6120;52.250;8.478;2023-07-31T14:46:41;13.48;;;8.50;;
12112;SDS011;6120;52.250;8.478;2023-07-31T14:49:08;13.20;;;9.48;;
12112;SDS011;6120;52.250;8.478;2023-07-31T14:51:35;14.07;;;8.95;;
12112;SDS011;6120;52.250;8.478;2023-07-31T14:54:01;13.90;;;8.85;;
12112;SDS011;6120;52.250;8.478;2023-07-31T14:56:28;10.60;;;8.00;;
12112;SDS011;6120;52.250;8.478;2023-07-31T14:58:55;11.63;;;8.13;;
12112;SDS011;6120;52.250;8.478;2023-07-31T15:01:21;13.77;;;8.70;;